Time;durP1;ratioP1;P1;durP2;ratioP2;P2;SDS_P1;SDS_P2;PMS_P1;PMS_P2;Temp;Humidity;BMP_temperature;BMP_pressure;BME280_temperature;BME280_humidity;BME280_pressure;Samples;Min_cycle;Max_cycle;Signal;HPM_P1;HPM_P2
2021/09/16 00:00:00;;;;;;;18.87;16.17;;;20.50;99.90;;;;;;4993863;28;20760;-51
2021/09/16 00:02:26;;;;;;;21.73;19.60;;;20.50;99.90;;;;;;4994054;28;20439;-51
2021/09/16 00:04:53;;;;;;;21.27;19.27;;;20.50;99.90;;;;;;4994083;28;20419;-51
2021/09/16 00:07:20;;;;;;;21.60;19.30;;;20.50;99.90;;;;;;4994052;28;20813;-51
2021/09/16 00:09:46;;;;;;;23.57;21.37;;;20.50;99.90;;;;;;4993695;28;20436;-51
2021/09/16 00:12:13;;;;;;;22.50;20.60;;;20.50;99.90;;;;;;4993832;28;20447;-51
2021/09/16 00:14:39;;;;;;;19.60;17.80;;;20.60;99.90;;;;;;4993958;28;20438;-51
2021/09/16 00:17:07;;;;;;;21.23;18.40;;;20.50;99.90;;;;;;4993793;28;20479;-50
2021/09/16 00:19:34;;;;;;;17.90;16.10;;;20.50;99.90;;;;;;4993403;28;20436;-50
2021/09/16 00:22:00;;;;;;;18.60;15.60;;;20.50;99.90;;;;;;4993776;28;20443;-51
2021/09/16 00:24:27;;;;;;;16.33;14.63;;;20.50;99.90;;;;;;4993911;28;20816;-51
2021/09/16 00:26:54;;;;;;;16.00;14.60;;;20.50;99.90;;;;;;4993703;28;20473;-51
2021/09/16 00:29:20;;;;;;;14.77;13.37;;;20.50;99.90;;;;;;4992922;28;20427;-51
2021/09/16 00:31:47;;;;;;;17.30;15.80;;;20.50;99.90;;;;;;4993505;28;20469;-51
2021/09/16 00:34:15;;;;;;;16.33;14.63;;;20.50;99.90;;;;;;4993815;28;20492;-51
2021/09/16 00:36:41;;;;;;;16.33;14.80;;;20.50;99.90;;;;;;4993504;28;20466;-50
2021/09/16 00:39:08;;;;;;;16.97;15.47;;;20.50;99.90;;;;;;4993044;28;20841;-51
2021/09/16 00:41:34;;;;;;;16.73;15.33;;;20.40;99.90;;;;;;4993357;28;20447;-51
2021/09/16 00:44:01;;;;;;;16.83;15.33;;;20.40;99.90;;;;;;4993684;28;20436;-51
2021/09/16 00:46:28;;;;;;;16.20;14.60;;;20.40;99.90;;;;;;4993704;28;20462;-51
2021/09/16 00:48:54;;;;;;;18.13;16.30;;;20.40;99.90;;;;;;4975409;28;20975;-51
2021/09/16 00:51:22;;;;;;;17.43;15.63;;;20.40;99.90;;;;;;4993312;28;20761;-52
2021/09/16 00:53:50;;;;;;;17.30;15.60;;;20.40;99.90;;;;;;4993100;28;20482;-51
2021/09/16 00:56:17;;;;;;;18.17;16.20;;;20.40;99.90;;;;;;4993117;28;20446;-51
2021/09/16 00:58:47;;;;;;;16.57;14.73;;;20.30;99.90;;;;;;4992758;28;20451;-51
2021/09/16 01:01:15;;;;;;;17.50;15.90;;;20.30;99.90;;;;;;4993096;28;20553;-51
2021/09/16 01:03:41;;;;;;;17.60;15.80;;;20.30;99.90;;;;;;4993178;28;20851;-51
2021/09/16 01:06:08;;;;;;;19.23;17.43;;;20.30;99.90;;;;;;4992795;28;20446;-51
2021/09/16 01:08:37;;;;;;;17.30;15.70;;;20.30;99.90;;;;;;4992641;28;20535;-51
2021/09/16 01:11:04;;;;;;;16.70;15.07;;;20.20;99.90;;;;;;4993277;28;20439;-51
2021/09/16 01:13:31;;;;;;;18.47;14.57;;;20.20;99.90;;;;;;4992831;28;20477;-51
2021/09/16 01:15:58;;;;;;;19.10;17.00;;;19.90;99.90;;;;;;4993017;28;20453;-51
2021/09/16 01:18:25;;;;;;;16.90;15.30;;;20.20;99.90;;;;;;4992407;28;20521;-51
2021/09/16 01:20:51;;;;;;;18.33;16.43;;;20.20;99.90;;;;;;4992786;28;20427;-51
2021/09/16 01:23:19;;;;;;;18.70;16.90;;;20.20;99.90;;;;;;4992705;28;20475;-51
2021/09/16 01:25:46;;;;;;;14.47;13.27;;;19.80;99.90;;;;;;4992491;28;20531;-51
2021/09/16 01:28:12;;;;;;;17.80;16.10;;;20.20;99.90;;;;;;4992122;28;20459;-51
2021/09/16 01:30:39;;;;;;;15.13;13.77;;;20.20;99.90;;;;;;4992748;28;20438;-51
2021/09/16 01:33:06;;;;;;;18.07;16.37;;;20.20;99.90;;;;;;4992422;28;20879;-51
2021/09/16 01:35:35;;;;;;;17.07;15.47;;;20.20;99.90;;;;;;4992620;28;20810;-52
2021/09/16 01:38:02;;;;;;;17.13;15.33;;;20.10;99.90;;;;;;4992072;28;20459;-51
2021/09/16 01:40:29;;;;;;;16.87;15.37;;;20.10;99.90;;;;;;4991584;28;20971;-50
2021/09/16 01:42:56;;;;;;;16.70;15.17;;;20.10;99.90;;;;;;4992472;28;20431;-52
2021/09/16 01:45:26;;;;;;;18.80;17.00;;;20.20;99.90;;;;;;4992406;28;20442;-51
2021/09/16 01:47:53;;;;;;;19.87;18.03;;;20.10;99.90;;;;;;4991786;28;20798;-51
2021/09/16 01:50:21;;;;;;;15.73;14.30;;;20.10;99.90;;;;;;4992379;28;20433;-51
2021/09/16 01:52:49;;;;;;;17.17;15.50;;;20.00;99.90;;;;;;4992199;28;20500;-51
2021/09/16 01:55:16;;;;;;;15.00;13.60;;;20.10;99.90;;;;;;4992291;28;20438;-51
2021/09/16 01:57:44;;;;;;;14.73;13.23;;;20.00;99.90;;;;;;4991943;28;20461;-51
2021/09/16 02:00:12;;;;;;;13.27;11.93;;;20.00;99.90;;;;;;4974552;28;20454;-51
2021/09/16 02:02:42;;;;;;;14.50;13.10;;;20.00;99.90;;;;;;4992177;28;20440;-51
2021/09/16 02:05:10;;;;;;;14.10;12.80;;;19.90;99.90;;;;;;4992178;28;20438;-50
2021/09/16 02:07:37;;;;;;;15.20;13.87;;;19.90;99.90;;;;;;4991907;28;20458;-51
2021/09/16 02:10:06;;;;;;;15.67;14.17;;;19.90;99.90;;;;;;4992136;28;20438;-51
2021/09/16 02:12:32;;;;;;;16.70;15.27;;;19.90;99.90;;;;;;4992306;28;20441;-51
2021/09/16 02:15:00;;;;;;;16.20;14.27;;;20.00;99.90;;;;;;4992254;28;20493;-52
2021/09/16 02:17:27;;;;;;;15.00;13.60;;;19.90;99.90;;;;;;4992045;28;20449;-51
2021/09/16 02:19:53;;;;;;;15.80;14.40;;;19.90;99.90;;;;;;4991586;28;20449;-51
2021/09/16 02:22:20;;;;;;;16.50;14.67;;;19.50;99.90;;;;;;4991992;28;20767;-51
2021/09/16 02:24:46;;;;;;;18.07;16.37;;;19.90;99.90;;;;;;4991901;28;20434;-51
2021/09/16 02:27:13;;;;;;;18.50;16.80;;;20.00;99.90;;;;;;4991804;28;20465;-52
2021/09/16 02:29:39;;;;;;;17.57;14.90;;;20.00;99.90;;;;;;4991638;28;20812;-51
2021/09/16 02:32:08;;;;;;;16.67;15.00;;;20.10;99.90;;;;;;4991886;28;20434;-51
2021/09/16 02:34:35;;;;;;;16.93;14.60;;;19.90;99.90;;;;;;4991727;28;20481;-51
2021/09/16 02:37:02;;;;;;;17.67;15.97;;;19.90;99.90;;;;;;4991790;28;20828;-52
2021/09/16 02:39:28;;;;;;;18.00;16.10;;;19.90;99.90;;;;;;4991550;28;20442;-52
2021/09/16 02:41:55;;;;;;;20.17;18.10;;;19.90;99.90;;;;;;4991889;28;20444;-51
2021/09/16 02:44:21;;;;;;;17.43;15.63;;;19.90;99.90;;;;;;4991878;28;20430;-51
2021/09/16 02:46:48;;;;;;;19.10;16.63;;;19.90;99.90;;;;;;4991535;28;20466;-51
2021/09/16 02:49:16;;;;;;;18.33;16.63;;;19.90;99.90;;;;;;4991407;28;20438;-52
2021/09/16 02:51:42;;;;;;;19.60;16.13;;;19.90;99.90;;;;;;4991995;28;20434;-51
2021/09/16 02:54:09;;;;;;;17.60;15.87;;;19.90;99.90;;;;;;4995250;28;20492;-51
2021/09/16 02:56:36;;;;;;;18.73;16.73;;;19.80;99.90;;;;;;4995219;28;20462;-52
2021/09/16 02:59:02;;;;;;;19.90;17.60;;;19.90;99.90;;;;;;4995397;28;20437;-51
2021/09/16 03:01:29;;;;;;;17.97;16.07;;;19.90;99.90;;;;;;4995275;28;20795;-51
2021/09/16 03:03:56;;;;;;;17.93;16.23;;;19.80;99.90;;;;;;4995132;28;20832;-52
2021/09/16 03:06:24;;;;;;;15.83;14.17;;;19.80;99.90;;;;;;4995184;28;20452;-52
2021/09/16 03:08:50;;;;;;;16.87;15.23;;;19.80;99.90;;;;;;4994716;28;20446;-50
2021/09/16 03:11:17;;;;;;;16.33;14.43;;;19.80;99.90;;;;;;4995107;28;20442;-51
2021/09/16 03:13:44;;;;;;;16.27;14.67;;;19.80;99.90;;;;;;4995016;28;20485;-52
2021/09/16 03:16:10;;;;;;;18.07;16.10;;;19.80;99.90;;;;;;4994800;28;20435;-51
2021/09/16 03:18:37;;;;;;;16.67;15.00;;;19.80;99.90;;;;;;4994356;28;20445;-51
2021/09/16 03:21:04;;;;;;;16.77;15.00;;;19.80;99.90;;;;;;4994999;28;20926;-52
2021/09/16 03:23:32;;;;;;;16.90;15.20;;;19.80;99.90;;;;;;4994953;28;20443;-51
2021/09/16 03:25:58;;;;;;;18.03;16.23;;;19.90;99.90;;;;;;4995156;28;20418;-51
2021/09/16 03:28:25;;;;;;;18.10;16.30;;;19.80;99.90;;;;;;4994301;28;20462;-51
2021/09/16 03:30:52;;;;;;;18.50;16.47;;;19.80;99.90;;;;;;4994678;28;20761;-52
2021/09/16 03:33:18;;;;;;;19.90;15.90;;;19.80;99.90;;;;;;4994561;28;20430;-51
2021/09/16 03:35:45;;;;;;;19.73;17.60;;;19.80;99.90;;;;;;4994668;28;20797;-51
2021/09/16 03:38:12;;;;;;;17.03;15.33;;;19.80;99.90;;;;;;4994083;28;20473;-51
2021/09/16 03:40:40;;;;;;;17.20;15.17;;;19.80;99.90;;;;;;4994591;28;20434;-51
2021/09/16 03:43:06;;;;;;;21.07;18.87;;;19.80;99.90;;;;;;4994473;28;20801;-51
2021/09/16 03:45:33;;;;;;;20.17;18.07;;;19.80;99.90;;;;;;4994454;28;20985;-52
2021/09/16 03:48:00;;;;;;;22.47;20.23;;;19.80;99.90;;;;;;4994053;28;20475;-51
2021/09/16 03:50:26;;;;;;;22.60;19.70;;;19.80;99.90;;;;;;4994386;28;20439;-52
2021/09/16 03:52:53;;;;;;;24.03;21.10;;;19.80;99.90;;;;;;4994363;28;20453;-51
2021/09/16 03:55:20;;;;;;;24.87;21.20;;;19.80;99.90;;;;;;4994099;28;20481;-51
2021/09/16 03:57:47;;;;;;;26.90;24.20;;;19.90;99.90;;;;;;4993578;28;20459;-52
2021/09/16 04:00:15;;;;;;;23.97;21.47;;;19.80;99.90;;;;;;4994122;28;20509;-51
2021/09/16 04:02:41;;;;;;;28.30;24.50;;;19.80;99.90;;;;;;4993948;28;20454;-51
2021/09/16 04:05:09;;;;;;;29.13;26.03;;;19.80;99.90;;;;;;4993289;28;20443;-51
2021/09/16 04:07:35;;;;;;;30.20;26.93;;;19.80;99.90;;;;;;4993956;28;20808;-51
2021/09/16 04:10:02;;;;;;;30.73;27.37;;;19.70;99.90;;;;;;4993877;28;20438;-51
2021/09/16 04:12:29;;;;;;;33.07;26.83;;;19.70;99.90;;;;;;4993853;28;20444;-51
2021/09/16 04:14:57;;;;;;;34.30;27.07;;;19.80;99.90;;;;;;4993838;28;20482;-52
2021/09/16 04:17:23;;;;;;;39.93;29.40;;;19.70;99.90;;;;;;4993685;28;20474;-52
2021/09/16 04:19:50;;;;;;;35.23;28.57;;;19.70;99.90;;;;;;4975765;28;20458;-52
2021/09/16 04:22:16;;;;;;;31.30;25.83;;;19.30;99.90;;;;;;4993488;28;20954;-51
2021/09/16 04:24:44;;;;;;;30.40;27.03;;;19.70;99.90;;;;;;4993643;28;20439;-52
2021/09/16 04:27:13;;;;;;;29.87;26.10;;;19.80;99.90;;;;;;4993693;28;20524;-51
2021/09/16 04:29:40;;;;;;;31.60;24.77;;;19.70;99.90;;;;;;4993197;28;20461;-51
2021/09/16 04:32:08;;;;;;;32.80;25.63;;;19.60;99.90;;;;;;4993381;28;20481;-50
2021/09/16 04:34:35;;;;;;;35.13;28.00;;;19.50;99.90;;;;;;4993460;28;20491;-51
2021/09/16 04:37:01;;;;;;;29.73;26.10;;;19.50;99.90;;;;;;4993043;28;20449;-51
2021/09/16 04:39:28;;;;;;;28.87;25.77;;;19.60;99.90;;;;;;4993189;28;20442;-52
2021/09/16 04:41:55;;;;;;;33.20;28.23;;;19.50;99.90;;;;;;4993078;28;20529;-51
2021/09/16 04:44:21;;;;;;;29.87;25.30;;;19.60;99.90;;;;;;4993153;28;20446;-51
2021/09/16 04:46:48;;;;;;;31.17;27.63;;;19.50;99.90;;;;;;4992859;28;20897;-51
2021/09/16 04:49:16;;;;;;;29.80;26.20;;;19.70;99.90;;;;;;4992663;28;20437;-52
2021/09/16 04:51:42;;;;;;;33.47;29.53;;;19.40;99.90;;;;;;4992992;28;20433;-51
2021/09/16 04:54:09;;;;;;;30.87;27.50;;;19.50;99.90;;;;;;4993560;28;20499;-51
2021/09/16 04:56:35;;;;;;;29.83;26.53;;;19.60;99.90;;;;;;4993125;28;20461;-52
2021/09/16 04:59:02;;;;;;;31.23;25.70;;;19.30;99.90;;;;;;4975153;28;20951;-52
2021/09/16 05:01:29;;;;;;;27.63;22.83;;;19.40;99.90;;;;;;4992952;28;20435;-52
2021/09/16 05:03:55;;;;;;;30.73;25.20;;;19.40;99.90;;;;;;4992891;28;20797;-52
2021/09/16 05:06:23;;;;;;;26.80;22.17;;;19.40;99.90;;;;;;4992655;28;20927;-52
2021/09/16 05:08:50;;;;;;;26.13;21.40;;;19.40;99.90;;;;;;4992215;28;20450;-51
2021/09/16 05:11:17;;;;;;;27.33;22.33;;;19.40;99.90;;;;;;4992708;28;20434;-51
2021/09/16 05:13:43;;;;;;;29.20;24.27;;;19.60;99.90;;;;;;4992498;28;20446;-51
2021/09/16 05:16:10;;;;;;;22.73;20.43;;;19.10;99.90;;;;;;4992741;28;20438;-51
2021/09/16 05:18:37;;;;;;;23.40;21.00;;;19.40;99.90;;;;;;4991531;28;20440;-52
2021/09/16 05:21:03;;;;;;;23.63;21.03;;;19.40;99.90;;;;;;4992162;28;20412;-51
2021/09/16 05:23:31;;;;;;;23.33;21.10;;;18.80;99.90;;;;;;4992174;28;20453;-51
2021/09/16 05:25:58;;;;;;;24.30;21.07;;;19.30;99.90;;;;;;4992086;28;20434;-50
2021/09/16 05:28:28;;;;;;;22.23;19.93;;;19.40;99.90;;;;;;4991384;28;20453;-52
2021/09/16 05:30:56;;;;;;;23.90;21.60;;;19.40;99.90;;;;;;4993448;28;20499;-51
2021/09/16 05:33:22;;;;;;;24.07;21.10;;;19.50;99.90;;;;;;4991746;28;20434;-52
2021/09/16 05:35:49;;;;;;;23.33;19.77;;;19.40;99.90;;;;;;4990862;28;20477;-53
2021/09/16 05:38:16;;;;;;;20.30;18.20;;;19.40;99.90;;;;;;4991217;28;20452;-52
2021/09/16 05:40:43;;;;;;;23.10;19.63;;;19.40;99.90;;;;;;4992060;28;20463;-52
2021/09/16 05:43:10;;;;;;;21.87;19.57;;;19.40;99.90;;;;;;4990816;28;20503;-52
2021/09/16 05:45:38;;;;;;;20.70;18.50;;;19.40;99.90;;;;;;4991559;28;20497;-52
2021/09/16 05:48:05;;;;;;;19.23;17.43;;;19.40;99.90;;;;;;4991380;28;20529;-52
2021/09/16 05:50:32;;;;;;;18.87;16.67;;;19.40;99.90;;;;;;4972653;28;20457;-52
2021/09/16 05:52:59;;;;;;;19.10;16.50;;;19.40;99.90;;;;;;4990974;28;20447;-52
2021/09/16 05:55:25;;;;;;;18.70;16.00;;;19.40;99.90;;;;;;4991831;28;20477;-52
2021/09/16 05:57:53;;;;;;;22.97;16.40;;;19.40;99.90;;;;;;4973452;28;21006;-52
2021/09/16 06:00:20;;;;;;;16.87;15.23;;;19.40;99.90;;;;;;4991671;28;20859;-52
2021/09/16 06:02:47;;;;;;;16.70;14.63;;;19.20;99.90;;;;;;4991370;28;20440;-51
2021/09/16 06:05:13;;;;;;;16.80;15.00;;;19.40;99.90;;;;;;4991381;28;20445;-52
2021/09/16 06:07:40;;;;;;;14.07;12.63;;;19.40;99.90;;;;;;4990765;28;20449;-51
2021/09/16 06:10:07;;;;;;;13.43;12.03;;;19.40;99.90;;;;;;4991837;28;20433;-52
2021/09/16 06:12:33;;;;;;;12.27;10.90;;;19.40;99.90;;;;;;4991288;28;20445;-51
2021/09/16 06:15:01;;;;;;;15.50;10.50;;;19.60;99.90;;;;;;4991532;28;20966;-52
2021/09/16 06:17:28;;;;;;;11.37;10.23;;;19.50;99.90;;;;;;4991011;28;20464;-52
2021/09/16 06:19:55;;;;;;;11.33;9.97;;;19.40;99.90;;;;;;4990898;28;20449;-52
2021/09/16 06:22:21;;;;;;;12.67;9.50;;;19.60;99.90;;;;;;4991216;28;20773;-53
2021/09/16 06:24:48;;;;;;;12.03;10.10;;;19.40;99.90;;;;;;4990773;28;20533;-52
2021/09/16 06:27:14;;;;;;;11.03;9.70;;;19.80;99.90;;;;;;4992178;28;20560;-52
2021/09/16 06:29:41;;;;;;;12.93;11.57;;;19.40;99.90;;;;;;4994370;28;20438;-51
2021/09/16 06:32:09;;;;;;;13.63;11.93;;;19.40;99.90;;;;;;4994345;28;20441;-52
2021/09/16 06:34:36;;;;;;;13.63;11.27;;;19.50;99.90;;;;;;4994700;28;20478;-52
2021/09/16 06:37:03;;;;;;;13.30;10.77;;;19.50;99.90;;;;;;4994570;28;20464;-53
2021/09/16 06:39:30;;;;;;;11.90;10.70;;;19.40;99.90;;;;;;4994361;28;20440;-52
2021/09/16 06:41:56;;;;;;;11.87;10.67;;;19.40;99.90;;;;;;4994061;28;20536;-52
2021/09/16 06:44:23;;;;;;;11.00;10.00;;;19.30;99.90;;;;;;4994025;28;20444;-52
2021/09/16 06:46:49;;;;;;;13.80;11.93;;;19.50;99.90;;;;;;5022141;22;20488;-50
2021/09/16 06:49:18;;;;;;;12.87;11.53;;;19.60;99.90;;;;;;5013528;28;20547;-50
2021/09/16 06:51:44;;;;;;;14.70;11.27;;;19.70;99.90;;;;;;5014092;28;20437;-49
2021/09/16 06:54:11;;;;;;;10.50;8.47;;;19.90;99.90;;;;;;5015114;28;20452;-50
2021/09/16 06:56:37;;;;;;;11.33;9.07;;;19.90;99.90;;;;;;5014617;28;20942;-51
2021/09/16 06:59:04;;;;;;;10.33;9.20;;;19.90;99.90;;;;;;5014089;28;20437;-50
2021/09/16 07:01:32;;;;;;;9.80;7.57;;;20.00;99.90;;;;;;5014513;28;20429;-50
2021/09/16 07:03:59;;;;;;;9.90;8.90;;;20.00;99.90;;;;;;5015654;28;20433;-51
2021/09/16 07:06:28;;;;;;;9.00;8.10;;;19.90;99.90;;;;;;5014415;28;20437;-50
2021/09/16 07:08:56;;;;;;;9.80;8.23;;;19.90;99.90;;;;;;5013924;28;20435;-50
2021/09/16 07:11:24;;;;;;;10.47;8.10;;;20.00;99.90;;;;;;5014671;28;20441;-50
2021/09/16 07:13:51;;;;;;;13.83;9.63;;;20.00;99.90;;;;;;5015453;28;20429;-49
2021/09/16 07:16:18;;;;;;;11.73;10.53;;;20.10;99.90;;;;;;5014383;28;20855;-49
2021/09/16 07:18:45;;;;;;;14.30;10.07;;;20.20;99.90;;;;;;5013708;28;20459;-51
2021/09/16 07:21:11;;;;;;;12.00;8.80;;;20.30;99.90;;;;;;5014666;28;20956;-51
2021/09/16 07:23:39;;;;;;;9.83;8.80;;;20.40;99.90;;;;;;5014780;28;20436;-50
2021/09/16 07:26:06;;;;;;;9.00;8.10;;;20.40;99.90;;;;;;5014174;28;20437;-51
2021/09/16 07:28:35;;;;;;;16.20;9.77;;;20.40;99.90;;;;;;5013818;28;20805;-49
2021/09/16 07:31:02;;;;;;;15.50;8.63;;;20.50;99.90;;;;;;5014155;28;20532;-49
2021/09/16 07:33:29;;;;;;;9.93;9.00;;;20.50;99.90;;;;;;5013869;28;20473;-51
2021/09/16 07:35:56;;;;;;;16.27;8.20;;;20.50;99.90;;;;;;5013502;28;20481;-51
2021/09/16 07:38:23;;;;;;;10.87;9.00;;;20.50;99.90;;;;;;5012750;28;20458;-50
2021/09/16 07:40:51;;;;;;;10.97;7.93;;;20.50;99.90;;;;;;5014454;28;20435;-50
2021/09/16 07:43:17;;;;;;;12.10;7.73;;;20.60;99.90;;;;;;5014152;28;20938;-49
2021/09/16 07:45:44;;;;;;;8.90;7.00;;;20.60;99.90;;;;;;5013596;28;20437;-50
2021/09/16 07:48:11;;;;;;;11.47;7.37;;;20.70;99.90;;;;;;5012983;28;20471;-51
2021/09/16 07:50:37;;;;;;;8.50;7.43;;;20.80;99.90;;;;;;5013842;28;20876;-51
2021/09/16 07:53:05;;;;;;;6.60;5.90;;;20.90;99.90;;;;;;5013756;28;20434;-50
2021/09/16 07:55:31;;;;;;;6.80;6.10;;;20.90;99.90;;;;;;5013760;28;20888;-50
2021/09/16 07:57:59;;;;;;;10.43;7.30;;;20.90;99.90;;;;;;5013905;28;20501;-50
2021/09/16 08:00:26;;;;;;;6.37;5.77;;;21.00;99.90;;;;;;5014214;28;20444;-49
2021/09/16 08:02:52;;;;;;;7.73;5.80;;;21.10;99.90;;;;;;5013657;28;20447;-49
2021/09/16 08:05:19;;;;;;;7.13;5.20;;;21.00;99.90;;;;;;5013779;28;20446;-50
2021/09/16 08:07:46;;;;;;;5.37;4.87;;;21.10;99.90;;;;;;5013225;28;20462;-50
2021/09/16 08:10:13;;;;;;;12.80;5.47;;;21.10;99.90;;;;;;5013704;28;20443;-50
2021/09/16 08:12:40;;;;;;;10.70;6.23;;;21.10;99.90;;;;;;5013075;28;20439;-50
2021/09/16 08:15:10;;;;;;;6.63;5.87;;;21.20;99.90;;;;;;5013346;28;20926;-50
2021/09/16 08:17:36;;;;;;;6.77;4.83;;;21.30;99.90;;;;;;5012684;28;20463;-51
2021/09/16 08:20:05;;;;;;;5.97;4.10;;;21.30;99.90;;;;;;5013019;28;20963;-50
2021/09/16 08:22:31;;;;;;;8.50;4.40;;;21.40;99.90;;;;;;5013279;28;20436;-51
2021/09/16 08:24:58;;;;;;;5.90;3.73;;;21.40;99.90;;;;;;5013622;28;20450;-50
2021/09/16 08:27:25;;;;;;;6.00;3.90;;;21.30;99.90;;;;;;5015291;28;20463;-50
2021/09/16 08:29:51;;;;;;;6.67;4.20;;;21.30;99.90;;;;;;5013912;28;20457;-49
2021/09/16 08:32:19;;;;;;;6.60;3.70;;;21.40;99.90;;;;;;5013810;28;20552;-49
2021/09/16 08:34:47;;;;;;;8.67;3.77;;;21.40;99.90;;;;;;5013356;28;20443;-51
2021/09/16 08:37:13;;;;;;;5.93;2.93;;;21.60;99.90;;;;;;5012514;28;20494;-49
2021/09/16 08:39:40;;;;;;;3.87;3.47;;;21.50;99.90;;;;;;5013148;28;20452;-51
2021/09/16 08:42:07;;;;;;;5.53;2.60;;;21.50;99.90;;;;;;5013197;28;20446;-49
2021/09/16 08:44:35;;;;;;;3.23;2.60;;;21.50;99.90;;;;;;5012762;28;20944;-49
2021/09/16 08:47:02;;;;;;;4.50;2.50;;;21.60;99.90;;;;;;5012546;28;20476;-51
2021/09/16 08:49:30;;;;;;;10.90;6.20;;;21.60;99.90;;;;;;5011147;28;20447;-51
2021/09/16 08:51:57;;;;;;;3.30;3.00;;;21.60;99.90;;;;;;5013186;28;20940;-51
2021/09/16 08:54:25;;;;;;;4.60;2.77;;;21.50;99.90;;;;;;5012700;28;20439;-51
2021/09/16 08:56:52;;;;;;;3.40;2.57;;;21.40;99.90;;;;;;5012439;28;20541;-49
2021/09/16 08:59:18;;;;;;;4.63;2.70;;;21.40;99.90;;;;;;5012457;28;20440;-51
2021/09/16 09:01:46;;;;;;;3.10;2.60;;;21.50;99.90;;;;;;5012763;28;20798;-50
2021/09/16 09:04:13;;;;;;;68.07;40.77;;;21.60;99.90;;;;;;5012450;28;20935;-50
2021/09/16 09:06:43;;;;;;;5.97;4.13;;;21.60;99.90;;;;;;5012443;28;20944;-49
2021/09/16 09:09:12;;;;;;;3.87;2.83;;;21.80;99.90;;;;;;5011969;28;20441;-50
2021/09/16 09:11:54;;;;;;;2.70;2.40;;;21.80;99.90;;;;;;5012125;28;20444;-50
2021/09/16 09:14:21;;;;;;;2.77;2.50;;;21.60;99.90;;;;;;5010783;28;20451;-50
2021/09/16 09:16:48;;;;;;;4.50;2.60;;;21.50;99.90;;;;;;5011906;28;20484;-50
2021/09/16 09:19:16;;;;;;;3.57;2.47;;;21.30;99.90;;;;;;5011589;28;20428;-49
2021/09/16 09:21:45;;;;;;;3.10;2.10;;;21.40;99.90;;;;;;5012073;28;20975;-48
2021/09/16 09:24:12;;;;;;;3.67;2.13;;;21.40;99.90;;;;;;5011759;28;20454;-48
2021/09/16 09:26:40;;;;;;;3.73;2.60;;;21.40;99.90;;;;;;5012152;28;20794;-49
2021/09/16 09:29:15;;;;;;;2.43;2.10;;;21.40;99.90;;;;;;5011844;28;21018;-50
2021/09/16 09:31:52;;;;;;;4.23;2.20;;;21.50;99.90;;;;;;5012217;28;20441;-50
2021/09/16 09:34:24;;;;;;;4.53;1.80;;;21.40;99.90;;;;;;5012786;28;20799;-50
2021/09/16 09:36:52;;;;;;;4.13;2.47;;;21.30;99.90;;;;;;5012219;28;20489;-49
2021/09/16 09:39:26;;;;;;;3.70;2.53;;;21.20;99.90;;;;;;5012954;28;20933;-49
2021/09/16 09:41:53;;;;;;;4.70;2.13;;;21.20;99.90;;;;;;5012225;28;20443;-48
2021/09/16 09:44:20;;;;;;;3.40;1.90;;;21.10;99.90;;;;;;5011349;28;20443;-49
2021/09/16 09:46:49;;;;;;;2.80;1.77;;;21.10;99.90;;;;;;5011006;28;21007;-49
2021/09/16 09:49:18;;;;;;;2.57;1.80;;;21.10;99.90;;;;;;5011303;28;20450;-49
2021/09/16 09:51:48;;;;;;;2.70;1.73;;;21.10;99.90;;;;;;5011556;28;20809;-49
2021/09/16 09:54:28;;;;;;;3.33;1.80;;;21.20;99.90;;;;;;5011761;28;20483;-49
2021/09/16 09:57:14;;;;;;;4.33;2.33;;;21.10;99.90;;;;;;5011547;28;20928;-49
2021/09/16 09:59:56;;;;;;;4.53;2.30;;;21.40;99.90;;;;;;5009621;28;20853;-50
2021/09/16 10:02:25;;;;;;;3.03;1.53;;;21.40;99.90;;;;;;5009425;28;20447;-51
2021/09/16 10:04:52;;;;;;;3.00;1.27;;;21.40;99.90;;;;;;5011673;28;20474;-49
2021/09/16 10:07:34;;;;;;;1.50;1.00;;;21.40;99.90;;;;;;5010965;28;20547;-49
2021/09/16 10:10:05;;;;;;;2.87;1.70;;;21.40;99.90;;;;;;5010872;28;20435;-50
2021/09/16 10:12:32;;;;;;;1.97;1.13;;;21.50;99.90;;;;;;5011287;28;20450;-50
2021/09/16 10:14:59;;;;;;;4.10;1.40;;;21.50;99.90;;;;;;5011235;28;20439;-50
2021/09/16 10:17:25;;;;;;;3.77;1.30;;;21.40;99.60;;;;;;5011446;28;20480;-49
2021/09/16 10:19:54;;;;;;;2.63;1.20;;;21.50;99.30;;;;;;5011137;28;20968;-49
2021/09/16 10:22:21;;;;;;;2.40;1.40;;;21.60;99.40;;;;;;5011589;28;20437;-51
2021/09/16 10:24:47;;;;;;;1.80;1.33;;;21.60;99.00;;;;;;5011526;28;20437;-50
2021/09/16 10:27:29;;;;;;;1.90;1.03;;;21.70;98.90;;;;;;5011215;28;20466;-49
2021/09/16 10:29:57;;;;;;;4.10;1.27;;;21.70;98.60;;;;;;5010705;28;20435;-49
2021/09/16 10:32:37;;;;;;;2.97;1.10;;;21.70;98.30;;;;;;5010978;28;20493;-51
2021/09/16 10:35:21;;;;;;;3.30;1.20;;;21.70;97.90;;;;;;5010632;28;20442;-50
2021/09/16 10:37:48;;;;;;;3.20;1.30;;;21.70;98.10;;;;;;5010556;28;20487;-50
2021/09/16 10:40:30;;;;;;;3.30;1.13;;;21.70;98.40;;;;;;5011425;28;20781;-50
2021/09/16 10:43:00;;;;;;;1.73;0.90;;;21.70;98.10;;;;;;5011034;28;20971;-50
2021/09/16 10:45:30;;;;;;;4.10;1.70;;;21.60;98.00;;;;;;5009650;28;20830;-50
2021/09/16 10:48:31;;;;;;;6.47;1.47;;;21.60;98.00;;;;;;5011158;28;20479;-50
2021/09/16 10:51:02;;;;;;;4.53;1.80;;;21.60;98.00;;;;;;5011197;28;20873;-49
2021/09/16 10:53:35;;;;;;;6.20;1.80;;;21.70;98.10;;;;;;5010971;28;20436;-49
2021/09/16 10:56:02;;;;;;;5.40;1.10;;;21.60;98.00;;;;;;5013076;28;20479;-49
2021/09/16 10:58:30;;;;;;;4.73;1.67;;;21.50;97.90;;;;;;5009195;28;20554;-50
2021/09/16 11:00:57;;;;;;;2.50;1.20;;;21.40;98.20;;;;;;5010410;28;20440;-50
2021/09/16 11:03:26;;;;;;;3.90;1.80;;;21.30;98.30;;;;;;5011073;28;20526;-50
2021/09/16 11:06:00;;;;;;;6.30;2.03;;;21.30;98.30;;;;;;5011163;28;20830;-50
2021/09/16 11:09:00;;;;;;;2.70;1.70;;;21.30;98.60;;;;;;5010378;28;20455;-50
2021/09/16 11:11:52;;;;;;;4.00;2.40;;;21.30;98.80;;;;;;5009471;28;20480;-50
2021/09/16 11:14:32;;;;;;;5.53;1.93;;;21.20;98.70;;;;;;5013271;28;20446;-50
2021/09/16 11:17:00;;;;;;;4.90;1.83;;;21.10;98.90;;;;;;5014233;28;20585;-50
2021/09/16 11:19:27;;;;;;;5.03;1.63;;;21.10;99.20;;;;;;5012424;28;20465;-50
2021/09/16 11:22:07;;;;;;;4.50;2.20;;;21.10;99.20;;;;;;5013993;28;20436;-49
2021/09/16 11:24:39;;;;;;;2.90;1.27;;;21.10;99.00;;;;;;5014204;28;20474;-50
2021/09/16 11:27:06;;;;;;;6.57;1.70;;;21.10;99.20;;;;;;5012950;28;20561;-50
2021/09/16 11:29:44;;;;;;;3.67;1.37;;;21.10;99.30;;;;;;5013759;28;20441;-49
2021/09/16 11:32:14;;;;;;;3.27;1.60;;;21.20;99.10;;;;;;5013999;28;20520;-49
2021/09/16 11:34:55;;;;;;;3.50;1.67;;;21.30;99.00;;;;;;5013949;28;20498;-50
2021/09/16 11:37:30;;;;;;;5.67;2.07;;;21.40;98.50;;;;;;5012045;28;20491;-49
2021/09/16 11:40:03;;;;;;;3.83;2.13;;;21.40;98.80;;;;;;5013805;28;20533;-50
2021/09/16 11:42:31;;;;;;;3.27;1.77;;;21.50;98.70;;;;;;5014003;28;20557;-48
2021/09/16 11:45:09;;;;;;;2.70;1.40;;;21.50;98.40;;;;;;5013778;28;20530;-49
2021/09/16 11:47:38;;;;;;;4.30;1.10;;;21.50;98.00;;;;;;5013396;28;20555;-50
2021/09/16 11:50:10;;;;;;;3.47;0.93;;;21.40;97.90;;;;;;5013603;28;20519;-49
2021/09/16 11:52:39;;;;;;;3.77;1.70;;;21.40;97.90;;;;;;5013814;28;20444;-49
2021/09/16 11:55:10;;;;;;;2.33;0.93;;;21.40;98.00;;;;;;5013365;28;20440;-49
2021/09/16 11:58:10;;;;;;;3.73;1.50;;;21.50;98.00;;;;;;5012732;28;20838;-49
2021/09/16 12:00:42;;;;;;;2.37;1.30;;;21.60;97.80;;;;;;5013347;28;20447;-50
2021/09/16 12:03:11;;;;;;;3.73;1.97;;;21.60;97.60;;;;;;5012862;28;20523;-50
2021/09/16 12:05:40;;;;;;;5.53;1.60;;;21.70;97.70;;;;;;5013080;28;20472;-50
2021/09/16 12:08:09;;;;;;;2.60;1.13;;;21.80;97.60;;;;;;5011227;28;20910;-50
2021/09/16 12:10:44;;;;;;;4.07;1.57;;;21.90;97.40;;;;;;5014362;28;20435;-51
2021/09/16 12:13:13;;;;;;;2.70;1.27;;;22.00;97.30;;;;;;5013302;28;20964;-50
2021/09/16 12:15:43;;;;;;;5.00;1.30;;;22.10;97.10;;;;;;5012198;28;20452;-49
2021/09/16 12:18:11;;;;;;;1.83;1.20;;;22.10;96.90;;;;;;5012771;28;20475;-50
2021/09/16 12:20:39;;;;;;;4.47;1.93;;;22.20;96.80;;;;;;5013092;28;20536;-49
2021/09/16 12:23:12;;;;;;;5.53;1.77;;;22.30;96.70;;;;;;5012009;28;20452;-49
2021/09/16 12:25:54;;;;;;;2.47;1.30;;;22.20;96.20;;;;;;5010602;28;20458;-50
2021/09/16 12:28:22;;;;;;;8.37;1.57;;;22.20;96.00;;;;;;5012315;28;20464;-49
2021/09/16 12:30:51;;;;;;;2.77;1.30;;;22.10;96.00;;;;;;5012739;28;20516;-49
2021/09/16 12:33:29;;;;;;;4.60;1.30;;;22.00;96.00;;;;;;5012849;28;20965;-49
2021/09/16 12:36:25;;;;;;;3.20;1.17;;;22.00;96.00;;;;;;5012999;28;20427;-50
2021/09/16 12:38:55;;;;;;;2.23;1.10;;;22.00;96.00;;;;;;5011850;28;20474;-50
2021/09/16 12:41:32;;;;;;;5.90;2.20;;;21.90;96.30;;;;;;5012385;28;20432;-48